Time;durP1;ratioP1;P1;durP2;ratioP2;P2;SDS_P1;SDS_P2;PMS_P1;PMS_P2;Temp;Humidity;BMP_temperature;BMP_pressure;BME280_temperature;BME280_humidity;BME280_pressure;Samples;Min_cycle;Max_cycle;Signal;HPM_P1;HPM_P2
2023/05/25 00:01:53;;;;;;;;;16.00;15.00;;;;;22.45;50.10;101293.61;110277;1250;21496;-39
2023/05/25 00:04:20;;;;;;;;;18.00;16.00;;;;;22.45;50.16;101296.55;110266;1265;19217;-39
2023/05/25 00:06:48;;;;;;;;;15.00;15.00;;;;;22.46;49.99;101294.84;110280;1265;19440;-39
2023/05/25 00:09:15;;;;;;;;;16.00;15.00;;;;;22.45;50.04;101290.79;110242;1251;20264;-39
2023/05/25 00:11:43;;;;;;;;;18.00;16.00;;;;;22.46;49.84;101289.73;110199;1250;20162;-40
2023/05/25 00:14:10;;;;;;;;;16.00;16.00;;;;;22.45;50.08;101289.35;110169;1265;20786;-40
2023/05/25 00:16:39;;;;;;;;;14.00;14.00;;;;;22.44;49.85;101295.14;110279;1251;21421;-40
2023/05/25 00:19:09;;;;;;;;;14.00;14.00;;;;;22.44;49.95;101294.42;110289;1265;22951;-40
2023/05/25 00:21:38;;;;;;;;;20.00;18.50;;;;;22.44;49.84;101292.74;110271;1265;23425;-39
2023/05/25 00:24:05;;;;;;;;;22.50;21.00;;;;;22.44;49.90;101287.58;110261;1250;21922;-40
2023/05/25 00:26:33;;;;;;;;;15.00;15.00;;;;;22.44;49.86;101286.94;110294;1250;21348;-41
2023/05/25 00:29:00;;;;;;;;;18.50;16.00;;;;;22.41;49.71;101277.51;110289;1265;19433;-40
2023/05/25 00:31:28;;;;;;;;;21.00;16.00;;;;;22.42;49.83;101280.94;110253;1265;22843;-41
2023/05/25 00:33:55;;;;;;;;;19.00;16.00;;;;;22.42;49.80;101279.10;110111;1251;21280;-40
2023/05/25 00:36:23;;;;;;;;;18.00;16.00;;;;;22.40;49.74;101278.54;110151;1265;20793;-41
2023/05/25 00:38:50;;;;;;;;;18.00;16.00;;;;;22.40;49.76;101281.13;110146;1259;20406;-41
2023/05/25 00:41:18;;;;;;;;;16.00;15.50;;;;;22.40;49.71;101282.95;110176;1265;19290;-45
2023/05/25 00:43:46;;;;;;;;;18.00;18.00;;;;;22.39;49.72;101286.08;110225;1257;19314;-41
2023/05/25 00:46:13;;;;;;;;;18.33;17.00;;;;;22.39;49.67;101292.09;109938;1250;475456;-42
2023/05/25 00:48:41;;;;;;;;;16.00;16.00;;;;;22.39;49.65;101286.13;110245;1265;23124;-41
2023/05/25 00:51:08;;;;;;;;;16.00;15.00;;;;;22.38;49.64;101287.19;110248;1265;19599;-41
2023/05/25 00:53:36;;;;;;;;;16.00;16.00;;;;;22.38;49.47;101289.51;110232;1260;20144;-41
2023/05/25 00:56:03;;;;;;;;;18.00;16.00;;;;;22.38;49.55;101292.11;110182;1265;19131;-40
2023/05/25 00:58:31;;;;;;;;;15.00;15.00;;;;;22.38;49.49;101294.22;110275;1265;19711;-39
2023/05/25 01:00:58;;;;;;;;;19.00;18.00;;;;;22.37;49.57;101295.48;110248;1251;21461;-41
2023/05/25 01:03:28;;;;;;;;;18.00;16.00;;;;;22.38;49.63;101301.02;110227;1265;20257;-41
2023/05/25 01:05:56;;;;;;;;;16.00;15.00;;;;;22.37;49.42;101307.30;110268;1265;22790;-40
2023/05/25 01:08:23;;;;;;;;;21.00;18.00;;;;;22.34;49.40;101309.08;110249;1251;23083;-40
2023/05/25 01:10:51;;;;;;;;;12.00;12.00;;;;;22.35;49.36;101313.75;110277;1265;19246;-40
2023/05/25 01:13:18;;;;;;;;;18.00;16.00;;;;;22.36;49.43;101316.17;110220;1251;21006;-39
2023/05/25 01:15:46;;;;;;;;;14.00;12.00;;;;;22.36;49.30;101318.70;110255;1265;23382;-40
2023/05/25 01:18:13;;;;;;;;;16.00;16.00;;;;;22.37;49.44;101320.83;110279;1257;20175;-41
2023/05/25 01:20:41;;;;;;;;;15.00;14.00;;;;;22.36;49.34;101320.96;110269;1251;21267;-40
2023/05/25 01:23:08;;;;;;;;;16.00;15.00;;;;;22.36;49.29;101319.46;110258;1265;23488;-40
2023/05/25 01:25:36;;;;;;;;;15.00;14.00;;;;;22.35;49.35;101323.17;110232;1265;19993;-40
2023/05/25 01:28:03;;;;;;;;;19.00;16.00;;;;;22.35;49.48;101324.50;110252;1265;19616;-44
2023/05/25 01:30:31;;;;;;;;;15.00;14.00;;;;;22.35;49.34;101328.52;110255;1265;20068;-41
2023/05/25 01:32:58;;;;;;;;;16.00;14.00;;;;;22.35;49.30;101328.53;110248;1251;23515;-40
2023/05/25 01:35:25;;;;;;;;;21.00;16.00;;;;;22.34;49.36;101328.77;110249;1251;20800;-41
2023/05/25 01:37:53;;;;;;;;;16.00;15.00;;;;;22.34;49.38;101335.46;110238;1251;23241;-40
2023/05/25 01:40:20;;;;;;;;;15.00;14.00;;;;;22.34;49.26;101329.38;110234;1265;19197;-40
2023/05/25 01:42:48;;;;;;;;;18.00;18.00;;;;;22.32;49.22;101325.36;110245;1265;21557;-40
2023/05/25 01:45:15;;;;;;;;;15.50;15.00;;;;;22.32;49.28;101326.66;110235;1265;20112;-40
2023/05/25 01:47:43;;;;;;;;;16.50;14.50;;;;;22.31;49.25;101325.14;110256;1265;20149;-41
2023/05/25 01:50:10;;;;;;;;;14.00;14.00;;;;;22.32;49.15;101326.67;110266;1265;19595;-40
2023/05/25 01:52:37;;;;;;;;;16.00;16.00;;;;;22.31;49.16;101328.04;110251;1250;22958;-40
2023/05/25 01:55:05;;;;;;;;;15.67;15.33;;;;;22.32;49.12;101325.81;110202;1265;19958;-40
2023/05/25 01:57:33;;;;;;;;;15.33;15.00;;;;;22.30;48.99;101327.77;110212;1251;20929;-41
2023/05/25 02:00:01;;;;;;;;;12.00;12.00;;;;;22.29;49.05;101332.29;110197;1265;22984;-40
2023/05/25 02:02:29;;;;;;;;;17.50;16.00;;;;;22.29;48.97;101332.09;110109;1265;23353;-40
2023/05/25 02:04:56;;;;;;;;;15.50;15.00;;;;;22.28;48.91;101338.16;110152;1251;21809;-40
2023/05/25 02:07:24;;;;;;;;;11.00;11.00;;;;;22.28;48.93;101332.44;110221;1251;21672;-40
2023/05/25 02:09:51;;;;;;;;;15.00;15.00;;;;;22.27;48.93;101335.03;110230;1251;20080;-39
2023/05/25 02:12:19;;;;;;;;;18.00;18.00;;;;;22.28;48.95;101335.16;110203;1265;24342;-40
2023/05/25 02:14:47;;;;;;;;;13.00;11.50;;;;;22.27;48.86;101337.73;110149;1250;21566;-40
2023/05/25 02:17:16;;;;;;;;;12.00;12.00;;;;;22.28;49.01;101335.10;110249;1265;22962;-41
2023/05/25 02:19:44;;;;;;;;;16.50;15.50;;;;;22.28;48.93;101334.16;110268;1250;22842;-40
2023/05/25 02:22:11;;;;;;;;;15.50;15.00;;;;;22.28;48.85;101328.44;110138;1265;20112;-40
2023/05/25 02:24:39;;;;;;;;;12.00;11.00;;;;;22.27;48.79;101324.28;110242;1260;23146;-41
2023/05/25 02:27:06;;;;;;;;;17.00;14.00;;;;;22.26;48.94;101326.23;110210;1251;19650;-40
2023/05/25 02:29:34;;;;;;;;;15.00;15.00;;;;;22.26;48.81;101336.27;110263;1251;24145;-41
2023/05/25 02:32:01;;;;;;;;;15.00;15.00;;;;;22.24;48.94;101343.54;110208;1251;22979;-40
2023/05/25 02:34:29;;;;;;;;;16.00;14.50;;;;;22.25;48.85;101350.95;110235;1265;19935;-40
2023/05/25 02:36:56;;;;;;;;;15.00;14.00;;;;;22.25;48.64;101349.99;110173;1250;22987;-40
2023/05/25 02:39:26;;;;;;;;;13.00;13.00;;;;;22.25;48.75;101350.64;110254;1265;19906;-41
2023/05/25 02:41:53;;;;;;;;;14.50;14.50;;;;;22.25;48.91;101353.34;110261;1251;20839;-41
2023/05/25 02:44:21;;;;;;;;;14.50;11.50;;;;;22.24;48.59;101356.17;110246;1265;21350;-40
2023/05/25 02:46:48;;;;;;;;;14.00;14.00;;;;;22.24;48.78;101353.48;110224;1265;19960;-40
2023/05/25 02:49:16;;;;;;;;;14.00;14.00;;;;;22.23;48.64;101354.59;110267;1265;19453;-40
2023/05/25 02:51:43;;;;;;;;;15.00;15.00;;;;;22.23;48.64;101350.39;110222;1265;22850;-41
2023/05/25 02:54:10;;;;;;;;;14.00;12.00;;;;;22.24;48.57;101351.59;110187;1265;19926;-41
2023/05/25 02:56:38;;;;;;;;;14.00;14.00;;;;;22.23;48.54;101352.79;110174;1265;19451;-40
2023/05/25 02:59:06;;;;;;;;;14.50;14.00;;;;;22.22;48.62;101353.67;110230;1251;20096;-40
2023/05/25 03:01:34;;;;;;;;;14.00;13.00;;;;;22.23;48.49;101358.48;110232;1251;23032;-43
2023/05/25 03:04:01;;;;;;;;;13.67;12.00;;;;;22.22;48.48;101354.86;110249;1265;21999;-40
2023/05/25 03:06:29;;;;;;;;;12.00;11.50;;;;;22.23;48.44;101357.05;110230;1265;20167;-40
2023/05/25 03:08:56;;;;;;;;;15.00;14.00;;;;;22.23;48.39;101354.63;110217;1265;23481;-40
2023/05/25 03:11:24;;;;;;;;;17.50;16.50;;;;;22.22;48.35;101349.62;110228;1265;23144;-40
2023/05/25 03:13:51;;;;;;;;;18.00;16.00;;;;;22.22;48.42;101352.20;110226;1265;21503;-40
2023/05/25 03:16:18;;;;;;;;;15.00;14.00;;;;;22.21;48.41;101352.10;110217;1250;19979;-40
2023/05/25 03:18:46;;;;;;;;;16.00;14.50;;;;;22.22;48.51;101352.79;110253;1265;19990;-40
2023/05/25 03:21:13;;;;;;;;;17.50;15.00;;;;;22.23;48.39;101358.10;110219;1265;22994;-41
2023/05/25 03:23:41;;;;;;;;;15.00;15.00;;;;;22.22;48.25;101355.98;110203;1251;19255;-41
2023/05/25 03:26:08;;;;;;;;;14.00;12.00;;;;;22.22;48.35;101353.67;110245;1265;19471;-40
2023/05/25 03:28:35;;;;;;;;;17.50;15.00;;;;;22.21;48.25;101352.52;110166;1251;21559;-41
2023/05/25 03:31:03;;;;;;;;;18.00;16.00;;;;;22.20;48.27;101353.72;110171;1265;22920;-41
2023/05/25 03:33:32;;;;;;;;;17.00;16.00;;;;;22.20;48.19;101356.44;110164;1265;23440;-40
2023/05/25 03:35:59;;;;;;;;;18.00;16.00;;;;;22.20;48.19;101360.44;110135;1265;20132;-40
2023/05/25 03:38:27;;;;;;;;;16.00;15.00;;;;;22.20;48.22;101361.50;110143;1251;21359;-41
2023/05/25 03:40:54;;;;;;;;;13.33;12.00;;;;;22.20;48.22;101367.19;110141;1265;20764;-41
2023/05/25 03:43:21;;;;;;;;;16.00;15.00;;;;;22.20;48.32;101368.84;110168;1251;21750;-40
2023/05/25 03:45:49;;;;;;;;;16.00;15.00;;;;;22.20;48.27;101367.79;110274;1265;23227;-41
2023/05/25 03:48:16;;;;;;;;;15.00;15.00;;;;;22.20;48.14;101370.52;110268;1265;20871;-40
2023/05/25 03:50:44;;;;;;;;;16.50;15.00;;;;;22.19;48.15;101376.55;110253;1251;22860;-41
2023/05/25 03:53:11;;;;;;;;;16.00;14.50;;;;;22.18;48.21;101371.84;110253;1250;23455;-40
2023/05/25 03:55:39;;;;;;;;;15.33;14.00;;;;;22.18;48.10;101374.85;110259;1259;21140;-42
2023/05/25 03:58:08;;;;;;;;;15.00;15.00;;;;;22.17;48.15;101374.26;110278;1265;21397;-40
2023/05/25 04:00:36;;;;;;;;;15.50;14.50;;;;;22.18;48.04;101378.35;110278;1251;20051;-40
2023/05/25 04:03:04;;;;;;;;;12.00;12.00;;;;;22.17;48.25;101379.81;110268;1251;20892;-41
2023/05/25 04:05:31;;;;;;;;;17.00;14.00;;;;;22.19;48.14;101383.86;110262;1265;23670;-40
2023/05/25 04:07:59;;;;;;;;;18.00;18.00;;;;;22.19;47.95;101385.63;110256;1265;23054;-40
2023/05/25 04:10:26;;;;;;;;;13.33;12.00;;;;;22.19;48.04;101387.14;110245;1251;20830;-40
2023/05/25 04:12:55;;;;;;;;;15.00;14.00;;;;;22.18;48.06;101388.33;110252;1249;20227;-41
2023/05/25 04:15:23;;;;;;;;;13.00;12.00;;;;;22.18;48.07;101388.49;110271;1257;22028;-39
2023/05/25 04:17:51;;;;;;;;;18.00;15.50;;;;;22.19;47.90;101389.49;110248;1265;21262;-40
2023/05/25 04:20:18;;;;;;;;;12.00;12.00;;;;;22.19;48.05;101394.27;110271;1265;21502;-40
2023/05/25 04:22:46;;;;;;;;;11.50;11.00;;;;;22.19;47.98;101394.02;110237;1251;19141;-41
2023/05/25 04:25:13;;;;;;;;;12.00;12.00;;;;;22.19;47.93;101397.10;110257;1251;24228;-40
2023/05/25 04:27:41;;;;;;;;;12.00;12.00;;;;;22.19;48.04;101400.95;110265;1265;21490;-40
2023/05/25 04:30:09;;;;;;;;;17.33;15.33;;;;;22.14;48.04;101391.89;110252;1265;19441;-40
2023/05/25 04:32:37;;;;;;;;;20.00;18.00;;;;;21.85;48.57;101390.44;110249;1265;23615;-40
2023/05/25 04:35:05;;;;;;;;;21.67;19.33;;;;;21.73;48.89;101388.55;110253;1251;21574;-41
2023/05/25 04:37:35;;;;;;;;;16.00;14.50;;;;;21.66;49.00;101392.52;110297;1265;19956;-41
2023/05/25 04:40:12;;;;;;;;;15.00;15.00;;;;;21.48;49.21;101390.17;110270;1265;21966;-41
2023/05/25 04:42:40;;;;;;;;;18.00;18.00;;;;;21.39;49.44;101388.79;110255;1265;22264;-41
2023/05/25 04:45:09;;;;;;;;;21.00;17.00;;;;;20.99;50.34;101395.89;110264;1251;24855;-43
2023/05/25 04:47:39;;;;;;;;;19.00;18.00;;;;;20.88;51.06;101398.73;110326;1250;23366;-40
2023/05/25 04:50:07;;;;;;;;;16.00;15.00;;;;;20.90;51.33;101398.40;110230;1265;22978;-40
2023/05/25 04:52:34;;;;;;;;;23.00;21.00;;;;;20.95;51.21;101399.21;110244;1265;19972;-40
2023/05/25 04:55:02;;;;;;;;;21.00;17.00;;;;;20.96;51.06;101397.28;110276;1251;20893;-40
2023/05/25 04:57:30;;;;;;;;;24.33;21.00;;;;;21.00;51.23;101399.95;110323;1249;21505;-41
2023/05/25 04:59:58;;;;;;;;;55.00;44.00;;;;;21.01;51.25;101403.16;110327;1249;19973;-40
2023/05/25 05:02:25;;;;;;;;;42.00;40.00;;;;;20.96;51.47;101405.89;110280;1265;19481;-40
2023/05/25 05:04:53;;;;;;;;;46.33;43.00;;;;;20.95;51.83;101401.23;110268;1250;20499;-40
2023/05/25 05:07:21;;;;;;;;;60.50;49.50;;;;;21.13;51.91;101404.95;110286;1249;20106;-39
2023/05/25 05:09:48;;;;;;;;;90.50;66.00;;;;;21.34;51.49;101406.03;110283;1250;21236;-39
2023/05/25 05:12:15;;;;;;;;;69.00;52.00;;;;;21.40;51.07;101404.86;110265;1257;22895;-40
2023/05/25 05:14:43;;;;;;;;;90.00;65.50;;;;;21.35;51.25;101405.39;110249;1251;19986;-41
2023/05/25 05:17:10;;;;;;;;;85.00;62.50;;;;;21.36;50.88;101404.75;110250;1260;19663;-40
2023/05/25 05:19:38;;;;;;;;;60.00;47.00;;;;;21.29;50.78;101398.69;110234;1265;21452;-39
2023/05/25 05:22:07;;;;;;;;;86.00;63.00;;;;;21.39;50.80;101400.54;110255;1265;19300;-40
2023/05/25 05:24:34;;;;;;;;;88.50;64.00;;;;;21.36;50.97;101403.48;110249;1257;21115;-39
2023/05/25 05:27:02;;;;;;;;;92.00;67.50;;;;;21.37;50.78;101400.59;110239;1265;23628;-40
2023/05/25 05:29:30;;;;;;;;;82.00;57.67;;;;;21.27;51.08;101400.75;110243;1265;22891;-39
2023/05/25 05:31:57;;;;;;;;;81.00;59.00;;;;;21.34;50.99;101398.76;110258;1265;19445;-40
2023/05/25 05:34:24;;;;;;;;;67.00;50.50;;;;;21.56;50.74;101398.37;110266;1250;21865;-40
2023/05/25 05:36:52;;;;;;;;;63.00;47.00;;;;;21.68;50.62;101403.75;110216;1265;23312;-40
2023/05/25 05:39:19;;;;;;;;;;;;;;;21.80;50.50;101404.46;110258;1265;22958;-40
2023/05/25 05:41:47;;;;;;;;;45.50;39.00;;;;;21.87;50.13;101409.90;110248;1265;23485;-40
2023/05/25 05:44:14;;;;;;;;;37.00;32.00;;;;;21.91;49.93;101409.88;110253;1251;19447;-40
2023/05/25 05:46:42;;;;;;;;;28.00;27.00;;;;;21.94;49.54;101409.52;110263;1249;21028;-40
2023/05/25 05:49:09;;;;;;;;;33.50;27.50;;;;;21.96;49.28;101408.69;110259;1265;22835;-39
2023/05/25 05:51:37;;;;;;;;;21.00;19.00;;;;;22.00;49.16;101411.21;110216;1265;23915;-39
2023/05/25 05:54:04;;;;;;;;;17.00;17.00;;;;;22.05;49.03;101406.08;110222;1265;21001;-42
2023/05/25 05:56:32;;;;;;;;;21.50;18.50;;;;;22.02;48.94;101399.20;110249;1265;22636;-39
2023/05/25 05:58:59;;;;;;;;;25.00;22.00;;;;;21.83;49.38;101401.46;110265;1265;19291;-37
2023/05/25 06:01:27;;;;;;;;;18.00;18.00;;;;;21.57;49.98;101403.17;110264;1260;20891;-37
2023/05/25 06:03:54;;;;;;;;;17.67;17.00;;;;;21.38;50.46;101405.02;110250;1265;22975;-38
2023/05/25 06:06:22;;;;;;;;;21.00;20.00;;;;;21.39;50.33;101406.56;110241;1265;23615;-38
2023/05/25 06:08:50;;;;;;;;;17.00;15.00;;;;;21.36;50.50;101407.48;110241;1265;23710;-38
2023/05/25 06:11:17;;;;;;;;;17.00;17.00;;;;;21.25;50.62;101404.05;110292;1250;21835;-40
2023/05/25 06:13:45;;;;;;;;;21.00;17.50;;;;;21.24;50.85;101405.21;110255;1265;19302;-39
2023/05/25 06:16:12;;;;;;;;;16.00;15.00;;;;;21.30;50.80;101401.20;110266;1251;21008;-38
2023/05/25 06:18:40;;;;;;;;;18.00;17.50;;;;;21.30;50.72;101407.48;110236;1251;21538;-39
2023/05/25 06:21:07;;;;;;;;;17.00;15.00;;;;;21.30;50.95;101401.15;110247;1265;19907;-39
2023/05/25 06:23:34;;;;;;;;;15.00;15.00;;;;;21.25;50.88;101408.26;110277;1251;21026;-39
2023/05/25 06:26:02;;;;;;;;;23.00;18.00;;;;;21.24;50.82;101412.34;110245;1265;20193;-39
2023/05/25 06:28:29;;;;;;;;;12.67;12.67;;;;;21.26;50.81;101413.06;110252;1250;19527;-38
2023/05/25 06:30:57;;;;;;;;;15.00;14.00;;;;;21.32;50.81;101416.59;110254;1265;19486;-38
2023/05/25 06:33:24;;;;;;;;;19.50;16.50;;;;;21.36;50.89;101419.81;110257;1265;21944;-39
2023/05/25 06:35:55;;;;;;;;;21.00;18.00;;;;;21.34;50.77;101419.13;110249;1265;19288;-38
2023/05/25 06:38:22;;;;;;;;;20.00;20.00;;;;;21.35;50.85;101419.95;110255;1257;24867;-38
2023/05/25 06:40:50;;;;;;;;;17.00;15.00;;;;;21.33;50.94;101420.45;110261;1251;22751;-38
2023/05/25 06:43:17;;;;;;;;;15.00;14.00;;;;;21.34;51.23;101421.81;110264;1250;22956;-40
2023/05/25 06:45:45;;;;;;;;;17.00;17.00;;;;;21.42;51.09;101422.30;110262;1265;19772;-38
2023/05/25 06:48:12;;;;;;;;;15.00;14.00;;;;;21.46;50.91;101424.38;110239;1250;22968;-38
2023/05/25 06:50:41;;;;;;;;;17.00;17.00;;;;;21.50;51.11;101427.35;110262;1265;22616;-38
2023/05/25 06:53:09;;;;;;;;;16.00;15.00;;;;;21.50;51.21;101429.15;110272;1265;23017;-38
2023/05/25 06:55:37;;;;;;;;;18.00;16.00;;;;;21.44;51.32;101437.13;110226;1251;22984;-38
2023/05/25 06:58:04;;;;;;;;;17.00;17.00;;;;;21.44;51.39;101436.71;110254;1265;22968;-41
2023/05/25 07:00:32;;;;;;;;;17.00;17.00;;;;;21.42;51.50;101434.98;110271;1265;20913;-37
2023/05/25 07:03:00;;;;;;;;;15.00;15.00;;;;;21.49;51.66;101437.15;110241;1251;21863;-38
2023/05/25 07:05:27;;;;;;;;;15.00;15.00;;;;;21.51;51.86;101433.34;110265;1251;19967;-40
2023/05/25 07:07:55;;;;;;;;;20.00;17.00;;;;;21.48;51.84;101434.15;110276;1251;22016;-41
2023/05/25 07:10:22;;;;;;;;;15.00;14.00;;;;;21.43;51.91;101431.09;110247;1265;20108;-38
2023/05/25 07:12:50;;;;;;;;;14.00;14.00;;;;;21.62;51.65;101422.12;110249;1251;23040;-39
2023/05/25 07:15:17;;;;;;;;;12.00;12.00;;;;;21.80;51.41;101424.31;110253;1265;19480;-39
2023/05/25 07:17:46;;;;;;;;;11.00;11.00;;;;;21.92;51.06;101423.39;110251;1265;22924;-39
2023/05/25 07:20:13;;;;;;;;;16.00;13.00;;;;;22.00;50.79;101425.82;110247;1265;19238;-40
2023/05/25 07:22:41;;;;;;;;;14.00;12.00;;;;;22.05;50.66;101426.71;110223;1265;20752;-38
2023/05/25 07:25:08;;;;;;;;;12.00;11.00;;;;;22.09;50.51;101423.66;110163;1251;22945;-38
2023/05/25 07:27:35;;;;;;;;;12.00;12.00;;;;;22.11;50.44;101422.48;110184;1257;19228;-38
2023/05/25 07:30:03;;;;;;;;;11.00;11.00;;;;;22.14;50.20;101415.16;110237;1265;21035;-39
2023/05/25 07:32:30;;;;;;;;;13.00;12.00;;;;;22.16;50.23;101409.48;110210;1250;22794;-38
2023/05/25 07:34:58;;;;;;;;;18.00;15.00;;;;;22.16;50.10;101413.09;110268;1265;20271;-39
2023/05/25 07:37:25;;;;;;;;;18.00;17.00;;;;;21.86;50.76;101417.48;110267;1265;22212;-39
2023/05/25 07:39:53;;;;;;;;;18.00;17.00;;;;;21.77;51.15;101421.69;110250;1265;19980;-40
2023/05/25 07:42:20;;;;;;;;;18.50;16.00;;;;;21.77;51.50;101425.05;110246;1265;19360;-39
2023/05/25 07:44:48;;;;;;;;;18.50;17.00;;;;;21.80;51.88;101426.63;110239;1250;22126;-40
2023/05/25 07:47:15;;;;;;;;;18.00;18.00;;;;;21.82;51.95;101430.12;110230;1265;21623;-40
2023/05/25 07:49:42;;;;;;;;;17.00;17.00;;;;;21.85;52.17;101429.06;110264;1257;19255;-38
2023/05/25 07:52:10;;;;;;;;;19.00;18.00;;;;;21.93;52.22;101429.94;110285;1251;20882;-38
2023/05/25 07:54:38;;;;;;;;;17.00;17.00;;;;;22.00;52.55;101431.52;110271;1250;20117;-38
2023/05/25 07:57:07;;;;;;;;;18.00;15.00;;;;;22.06;52.24;101428.35;110265;1265;19532;-40
2023/05/25 07:59:35;;;;;;;;;19.00;17.00;;;;;22.11;52.31;101434.09;110307;1265;23115;-41
2023/05/25 08:02:02;;;;;;;;;14.00;14.00;;;;;22.02;52.35;101427.15;110234;1251;21860;-39
2023/05/25 08:04:30;;;;;;;;;19.00;18.00;;;;;22.00;52.57;101431.20;110244;1265;21492;-40
2023/05/25 08:06:57;;;;;;;;;21.50;19.50;;;;;22.08;52.38;101436.66;110232;1251;23092;-40
2023/05/25 08:09:25;;;;;;;;;18.00;15.00;;;;;22.09;52.39;101431.70;110246;1251;21512;-40
2023/05/25 08:11:52;;;;;;;;;19.00;18.00;;;;;22.04;52.48;101430.27;110226;1266;19495;-40
2023/05/25 08:14:22;;;;;;;;;21.50;18.00;;;;;22.05;52.65;101431.55;110205;1266;19624;-40
2023/05/25 08:16:50;;;;;;;;;18.00;18.00;;;;;21.97;52.77;101433.15;110196;1265;23507;-40
2023/05/25 08:19:17;;;;;;;;;18.00;17.00;;;;;21.96;52.81;101434.71;110142;1265;23086;-40
2023/05/25 08:21:44;;;;;;;;;20.00;18.00;;;;;22.13;52.83;101434.77;110129;1251;20762;-40
2023/05/25 08:24:12;;;;;;;;;19.00;17.00;;;;;22.19;52.94;101434.81;110151;1265;20496;-46
2023/05/25 08:26:40;;;;;;;;;16.00;15.00;;;;;22.20;52.79;101434.58;110219;1251;22983;-40
2023/05/25 08:29:07;;;;;;;;;21.67;18.00;;;;;22.19;52.86;101430.28;110174;1265;23467;-39
2023/05/25 08:31:36;;;;;;;;;21.00;17.00;;;;;22.20;52.78;101427.77;110153;1251;21721;-40
2023/05/25 08:34:03;;;;;;;;;18.00;18.00;;;;;22.25;52.90;101426.83;110257;1265;23592;-41
2023/05/25 08:36:32;;;;;;;;;15.50;14.50;;;;;22.28;52.58;101429.25;110231;1250;20941;-40
2023/05/25 08:39:00;;;;;;;;;20.00;19.00;;;;;22.31;52.59;101423.48;110254;1265;21487;-40
2023/05/25 08:41:27;;;;;;;;;17.00;16.00;;;;;22.34;52.90;101430.36;110253;1251;20123;-40
2023/05/25 08:43:55;;;;;;;;;18.00;16.00;;;;;22.32;52.81;101429.11;110231;1265;19611;-40
2023/05/25 08:46:22;;;;;;;;;22.00;19.00;;;;;22.33;52.90;101436.39;110244;1265;20203;-40
2023/05/25 08:48:50;;;;;;;;;19.00;19.00;;;;;22.31;52.91;101429.42;110235;1251;23105;-40
2023/05/25 08:51:17;;;;;;;;;17.33;15.33;;;;;22.31;52.87;101433.42;110217;1260;21058;-39
2023/05/25 08:53:45;;;;;;;;;16.00;15.00;;;;;22.37;52.69;101432.26;110222;1260;21625;-39
2023/05/25 08:56:12;;;;;;;;;18.00;16.00;;;;;22.41;52.65;101430.92;110245;1251;22776;-40
2023/05/25 08:58:40;;;;;;;;;19.50;18.00;;;;;22.42;52.64;101431.75;110254;1265;22971;-40
2023/05/25 09:01:08;;;;;;;;;18.00;16.00;;;;;22.40;52.63;101432.67;110235;1249;21674;-40
2023/05/25 09:03:36;;;;;;;;;16.50;15.00;;;;;22.36;52.61;101432.02;110211;1265;19975;-40
2023/05/25 09:06:03;;;;;;;;;16.00;16.00;;;;;22.35;52.44;101433.04;110250;1266;23661;-40
2023/05/25 09:08:31;;;;;;;;;17.50;17.50;;;;;22.35;52.44;101432.42;110241;1251;21534;-40
2023/05/25 09:11:01;;;;;;;;;21.00;19.00;;;;;22.37;52.67;101437.89;110192;1265;20081;-41
2023/05/25 09:13:28;;;;;;;;;19.67;19.00;;;;;22.36;52.68;101439.25;110244;1265;19421;-40
2023/05/25 09:15:55;;;;;;;;;19.00;17.00;;;;;22.39;52.92;101443.11;110271;1251;21477;-40
2023/05/25 09:18:23;;;;;;;;;17.67;16.00;;;;;22.40;52.64;101436.66;110244;1265;19934;-41
2023/05/25 09:20:50;;;;;;;;;16.33;16.00;;;;;22.29;52.41;101440.81;110230;1265;20704;-40
2023/05/25 09:23:18;;;;;;;;;19.00;18.00;;;;;22.29;52.33;101440.62;110249;1265;23205;-41
2023/05/25 09:25:45;;;;;;;;;18.50;16.50;;;;;22.35;52.08;101439.70;110233;1265;19453;-41
2023/05/25 09:28:13;;;;;;;;;15.00;15.00;;;;;22.34;52.02;101437.28;110250;1251;23325;-40
2023/05/25 09:30:40;;;;;;;;;16.00;15.00;;;;;22.33;51.52;101438.15;110102;1250;21490;-40
2023/05/25 09:33:08;;;;;;;;;19.00;18.00;;;;;22.39;51.57;101436.38;110229;1265;20299;-38
2023/05/25 09:35:35;;;;;;;;;18.00;18.00;;;;;22.43;51.35;101442.30;110241;1265;23011;-39
2023/05/25 09:38:02;;;;;;;;;;;;;;;22.43;51.16;101444.27;110235;1251;22010;-39
2023/05/25 09:40:30;;;;;;;;;16.00;16.00;;;;;22.46;51.38;101445.97;110235;1251;23073;-40
2023/05/25 09:42:57;;;;;;;;;15.50;14.00;;;;;22.48;51.62;101448.36;110159;1265;21825;-39
2023/05/25 09:45:25;;;;;;;;;18.33;18.00;;;;;22.49;51.73;101447.83;110232;1265;20475;-40
2023/05/25 09:47:52;;;;;;;;;15.33;15.33;;;;;22.50;51.45;101446.29;110260;1265;21704;-39
2023/05/25 09:50:20;;;;;;;;;16.00;16.00;;;;;22.52;51.57;101438.95;110256;1265;23204;-39
2023/05/25 09:52:47;;;;;;;;;15.50;15.00;;;;;22.53;51.07;101437.61;110267;1250;23125;-39
2023/05/25 09:55:15;;;;;;;;;19.00;18.00;;;;;22.53;50.95;101438.33;110247;1251;19913;-40
2023/05/25 09:57:42;;;;;;;;;16.00;16.00;;;;;22.56;51.08;101441.53;110269;1265;21809;-42
2023/05/25 10:00:10;;;;;;;;;15.50;14.50;;;;;22.57;50.89;101447.52;110256;1265;21447;-41
2023/05/25 10:02:38;;;;;;;;;16.00;16.00;;;;;22.58;50.55;101448.09;110190;1265;20021;-38
2023/05/25 10:05:06;;;;;;;;;18.33;16.00;;;;;22.57;50.30;101446.52;110129;1265;19600;-40
2023/05/25 10:07:34;;;;;;;;;16.00;16.00;;;;;22.59;50.26;101444.51;110224;1266;21270;-39
2023/05/25 10:10:02;;;;;;;;;15.00;15.00;;;;;22.59;50.17;101440.54;110211;1257;23336;-39
2023/05/25 10:12:30;;;;;;;;;16.00;15.00;;;;;22.64;50.19;101444.34;110240;1265;19807;-40
2023/05/25 10:14:57;;;;;;;;;15.00;13.00;;;;;22.71;50.11;101444.70;110252;1250;23097;-39
2023/05/25 10:17:25;;;;;;;;;16.67;16.67;;;;;22.72;50.06;101446.41;110233;1265;23249;-39
2023/05/25 10:19:52;;;;;;;;;18.00;18.00;;;;;22.71;50.49;101446.09;110228;1265;19385;-39
2023/05/25 10:22:20;;;;;;;;;15.00;15.00;;;;;22.71;50.85;101444.83;110251;1251;21458;-39
2023/05/25 10:24:48;;;;;;;;;18.00;18.00;;;;;22.73;50.89;101447.78;110250;1265;20785;-39
2023/05/25 10:27:15;;;;;;;;;18.50;18.00;;;;;22.76;51.09;101453.02;110238;1251;21231;-39
2023/05/25 10:29:43;;;;;;;;;15.00;15.00;;;;;22.75;51.15;101453.25;110273;1265;21847;-41
2023/05/25 10:32:10;;;;;;;;;15.50;15.00;;;;;22.75;51.33;101453.50;110247;1251;19905;-40
2023/05/25 10:34:37;;;;;;;;;18.00;15.67;;;;;22.73;51.12;101449.55;110247;1251;24045;-40
2023/05/25 10:37:05;;;;;;;;;15.00;13.00;;;;;22.74;51.14;101452.86;110265;1265;21682;-40
2023/05/25 10:39:32;;;;;;;;;20.00;16.00;;;;;22.77;51.34;101451.65;110260;1266;19448;-40
2023/05/25 10:42:00;;;;;;;;;15.00;15.00;;;;;22.79;51.49;101452.30;110247;1265;20903;-40
2023/05/25 10:44:28;;;;;;;;;15.00;15.00;;;;;22.83;51.48;101453.43;110295;1250;22747;-43
2023/05/25 10:46:55;;;;;;;;;19.00;16.00;;;;;22.88;52.19;101445.63;110230;1251;22497;-39
2023/05/25 10:49:23;;;;;;;;;22.00;18.00;;;;;22.89;52.57;101445.56;110021;1260;20948;-40
2023/05/25 10:51:50;;;;;;;;;16.50;16.50;;;;;22.92;52.56;101445.37;110250;1250;21773;-40
2023/05/25 10:54:19;;;;;;;;;22.00;19.00;;;;;22.90;52.44;101444.98;110242;1265;21161;-39
2023/05/25 10:56:46;;;;;;;;;16.00;15.00;;;;;22.90;51.93;101440.64;110286;1257;24575;-39
2023/05/25 10:59:14;;;;;;;;;17.00;16.00;;;;;22.91;51.91;101438.14;110249;1251;21509;-38
2023/05/25 11:01:41;;;;;;;;;22.50;19.00;;;;;22.93;52.02;101435.60;110251;1249;20348;-39
2023/05/25 11:04:09;;;;;;;;;17.00;16.00;;;;;22.99;53.94;101430.36;110271;1265;23247;-39